Time;durP1;ratioP1;P1;durP2;ratioP2;P2;SDS_P1;SDS_P2;PMS_P1;PMS_P2;Temp;Humidity;BMP_temperature;BMP_pressure;BME280_temperature;BME280_humidity;BME280_pressure;Samples;Min_cycle;Max_cycle;Signal;HPM_P1;HPM_P2
2022/09/29 00:01:09;;;;;;;5.40;3.50;;;5.60;99.90;;;;;;5096551;28;20401;-68
2022/09/29 00:03:36;;;;;;;6.25;4.80;;;5.60;99.90;;;;;;5091843;28;20039;-68
2022/09/29 00:06:02;;;;;;;12.73;10.90;;;6.00;99.90;;;;;;5099379;28;20047;-68
2022/09/29 00:08:30;;;;;;;12.35;6.50;;;5.70;99.90;;;;;;5099608;28;20035;-68
2022/09/29 00:10:56;;;;;;;6.50;4.03;;;5.60;99.90;;;;;;5102492;28;20051;-68
2022/09/29 00:13:22;;;;;;;7.53;4.13;;;5.60;99.90;;;;;;5098485;28;20040;-68
2022/09/29 00:15:56;;;;;;;11.90;4.55;;;5.60;99.90;;;;;;5106154;28;20043;-68
2022/09/29 00:18:22;;;;;;;13.70;12.15;;;5.60;99.90;;;;;;5110118;28;20063;-68
2022/09/29 00:20:56;;;;;;;5.90;4.05;;;5.70;99.90;;;;;;5108082;28;20527;-69
2022/09/29 00:23:24;;;;;;;7.43;5.35;;;5.60;99.90;;;;;;5109250;28;20050;-68
2022/09/29 00:26:00;;;;;;;14.15;12.80;;;5.60;99.90;;;;;;5106804;28;20054;-68
2022/09/29 00:28:25;;;;;;;10.77;5.15;;;5.70;99.90;;;;;;5102492;28;20071;-68
2022/09/29 00:30:51;;;;;;;20.20;5.00;;;5.60;99.90;;;;;;5096694;28;20082;-68
2022/09/29 00:33:16;;;;;;;14.35;12.95;;;5.60;99.90;;;;;;5107646;28;20055;-68
2022/09/29 00:35:42;;;;;;;11.13;5.47;;;5.60;99.90;;;;;;5105430;27;20039;-68
2022/09/29 00:38:08;;;;;;;11.30;5.03;;;5.50;99.90;;;;;;5108929;28;20054;-69
2022/09/29 00:40:33;;;;;;;17.05;13.95;;;5.50;99.90;;;;;;5102549;28;20234;-68
2022/09/29 00:42:59;;;;;;;18.05;15.90;;;5.50;99.90;;;;;;5105678;28;20122;-68
2022/09/29 00:45:25;;;;;;;7.15;4.85;;;5.60;99.90;;;;;;5102543;28;20404;-68
2022/09/29 00:48:06;;;;;;;5.97;4.40;;;5.50;99.90;;;;;;5106807;28;20114;-68
2022/09/29 00:50:51;;;;;;;10.13;5.82;;;5.50;99.90;;;;;;5109632;28;20119;-68
2022/09/29 00:53:19;;;;;;;18.38;5.95;;;5.40;99.90;;;;;;5102939;28;20055;-69
2022/09/29 00:56:06;;;;;;;20.08;15.60;;;5.40;99.90;;;;;;5100299;28;20039;-68
2022/09/29 00:58:54;;;;;;;7.50;4.55;;;5.40;99.90;;;;;;5102373;28;20040;-68
2022/09/29 01:01:22;;;;;;;12.63;11.23;;;5.40;99.90;;;;;;5109451;28;20097;-68
2022/09/29 01:03:51;;;;;;;9.00;5.13;;;5.30;99.90;;;;;;5110039;28;20100;-68
2022/09/29 01:06:30;;;;;;;6.40;4.43;;;5.30;99.90;;;;;;5109326;28;20086;-68
2022/09/29 01:09:02;;;;;;;7.60;5.57;;;5.30;99.90;;;;;;5109365;28;20126;-68
2022/09/29 01:11:29;;;;;;;8.50;6.40;;;5.30;99.90;;;;;;5098435;28;20097;-68
2022/09/29 01:14:00;;;;;;;6.03;4.07;;;5.30;99.90;;;;;;5109542;28;20500;-69
2022/09/29 01:16:26;;;;;;;6.93;4.65;;;5.30;99.90;;;;;;5106039;28;20101;-68
2022/09/29 01:18:52;;;;;;;7.32;4.45;;;5.30;99.90;;;;;;5097337;28;20044;-69
2022/09/29 01:21:35;;;;;;;6.13;3.90;;;5.20;99.90;;;;;;5088652;28;20054;-69
2022/09/29 01:24:19;;;;;;;6.32;4.07;;;5.20;99.90;;;;;;5087734;28;20405;-68
2022/09/29 01:27:05;;;;;;;8.23;4.57;;;5.20;99.90;;;;;;5087355;27;20512;-68
2022/09/29 01:29:43;;;;;;;6.80;4.35;;;5.20;99.90;;;;;;5093196;28;20051;-68
2022/09/29 01:32:31;;;;;;;5.78;4.82;;;5.10;99.90;;;;;;5101143;28;20105;-68
2022/09/29 01:35:13;;;;;;;6.85;4.57;;;5.10;99.90;;;;;;5099842;28;20462;-68
2022/09/29 01:37:53;;;;;;;6.18;4.55;;;5.10;99.90;;;;;;5095093;28;20087;-68
2022/09/29 01:40:25;;;;;;;6.65;4.13;;;5.10;99.90;;;;;;5102991;28;20050;-68
2022/09/29 01:42:53;;;;;;;3.38;3.08;;;5.00;99.90;;;;;;5093316;28;20123;-68
2022/09/29 01:45:23;;;;;;;;;;;4.90;99.90;;;;;;5088405;28;20051;-68
2022/09/29 01:47:59;;;;;;;8.15;3.80;;;4.80;99.90;;;;;;5086598;28;19924;-68
2022/09/29 01:50:34;;;;;;;6.43;3.92;;;4.80;99.90;;;;;;5108730;28;20397;-68
2022/09/29 01:53:05;;;;;;;6.70;3.17;;;4.80;99.90;;;;;;5099175;28;20086;-68
2022/09/29 01:55:34;;;;;;;11.38;10.18;;;4.70;99.90;;;;;;5105936;28;20048;-68
2022/09/29 01:58:05;;;;;;;5.95;3.80;;;4.80;99.90;;;;;;5107558;28;20062;-68
2022/09/29 02:00:37;;;;;;;14.60;12.55;;;4.80;99.90;;;;;;5084985;28;20040;-68
2022/09/29 02:03:12;;;;;;;9.25;4.38;;;4.90;99.90;;;;;;5100912;28;20047;-68
2022/09/29 02:05:41;;;;;;;7.15;4.38;;;4.80;99.90;;;;;;5099088;28;20070;-68
2022/09/29 02:08:13;;;;;;;7.30;4.72;;;4.80;99.90;;;;;;5093158;28;20053;-68
2022/09/29 02:10:52;;;;;;;4.45;3.85;;;4.80;99.90;;;;;;5099978;28;20052;-68
2022/09/29 02:13:20;;;;;;;5.82;4.13;;;4.80;99.90;;;;;;5105960;28;20082;-68
2022/09/29 02:15:48;;;;;;;6.25;4.50;;;4.80;99.90;;;;;;5093749;28;20043;-69
2022/09/29 02:18:20;;;;;;;;;;;4.90;99.90;;;;;;5107991;28;20412;-68
2022/09/29 02:20:48;;;;;;;11.93;10.75;;;4.80;99.90;;;;;;5102970;28;19919;-68
2022/09/29 02:23:14;;;;;;;8.40;5.10;;;4.80;99.90;;;;;;5098243;28;20513;-68
2022/09/29 02:25:40;;;;;;;5.15;4.63;;;4.90;99.90;;;;;;5094748;28;20085;-68
2022/09/29 02:28:07;;;;;;;5.82;4.35;;;4.90;99.90;;;;;;5102815;28;20040;-68
2022/09/29 02:30:33;;;;;;;7.38;5.05;;;4.90;99.90;;;;;;5101151;28;20055;-68
2022/09/29 02:32:59;;;;;;;6.55;4.35;;;4.80;99.90;;;;;;5107500;28;20519;-68
2022/09/29 02:35:37;;;;;;;18.02;4.15;;;4.80;99.90;;;;;;5107995;28;20039;-68
2022/09/29 02:38:09;;;;;;;21.05;5.57;;;4.80;99.90;;;;;;5107735;28;20070;-68
2022/09/29 02:40:50;;;;;;;8.05;3.75;;;4.80;99.90;;;;;;5107125;28;20122;-68
2022/09/29 02:43:43;;;;;;;5.30;3.95;;;4.70;99.90;;;;;;5107643;28;20074;-68
2022/09/29 02:46:28;;;;;;;6.43;4.38;;;4.60;99.90;;;;;;5107738;28;20086;-68
2022/09/29 02:49:26;;;;;;;6.38;4.18;;;4.70;99.90;;;;;;5087531;28;20048;-68
2022/09/29 02:52:27;;;;;;;8.50;5.07;;;4.70;99.90;;;;;;5093279;28;20492;-69
2022/09/29 02:54:58;;;;;;;10.05;4.53;;;4.70;99.90;;;;;;5093786;28;20051;-69
2022/09/29 02:57:31;;;;;;;5.70;2.47;;;4.80;99.90;;;;;;5111487;28;20044;-68
2022/09/29 03:00:11;;;;;;;12.13;10.80;;;4.60;99.90;;;;;;5104383;28;20575;-68
2022/09/29 03:02:39;;;;;;;8.35;5.28;;;4.60;99.90;;;;;;5110108;28;20051;-68
2022/09/29 03:05:09;;;;;;;4.30;3.30;;;4.50;99.90;;;;;;5105073;28;20404;-68
2022/09/29 03:07:37;;;;;;;6.13;3.35;;;4.40;99.90;;;;;;5110416;28;20154;-68
2022/09/29 03:10:03;;;;;;;8.02;4.50;;;4.30;99.90;;;;;;5100826;27;20089;-69
2022/09/29 03:12:29;;;;;;;6.18;3.60;;;4.30;99.90;;;;;;5103765;27;20048;-69
2022/09/29 03:14:55;;;;;;;3.97;3.08;;;4.20;99.90;;;;;;5108216;28;20086;-68
2022/09/29 03:17:21;;;;;;;4.43;3.63;;;4.20;99.90;;;;;;5111108;28;20075;-68
2022/09/29 03:19:46;;;;;;;7.38;3.25;;;4.30;99.90;;;;;;5111268;28;20059;-69
2022/09/29 03:22:12;;;;;;;6.43;4.30;;;4.20;99.90;;;;;;5101358;28;20066;-69
2022/09/29 03:24:37;;;;;;;7.68;3.88;;;4.30;99.90;;;;;;5098111;28;20044;-69
2022/09/29 03:27:03;;;;;;;8.88;4.00;;;4.30;99.90;;;;;;5108431;28;20039;-69
2022/09/29 03:29:30;;;;;;;3.00;2.30;;;4.40;99.90;;;;;;5110936;28;20051;-68
2022/09/29 03:31:57;;;;;;;4.70;3.05;;;4.20;99.90;;;;;;5109842;28;20139;-69
2022/09/29 03:34:23;;;;;;;3.47;2.53;;;4.20;99.90;;;;;;5110301;28;20070;-69
2022/09/29 03:36:49;;;;;;;6.43;3.88;;;4.20;99.90;;;;;;5099298;28;20501;-69
2022/09/29 03:39:14;;;;;;;6.53;3.70;;;4.10;99.90;;;;;;5110538;28;20080;-69
2022/09/29 03:41:40;;;;;;;5.38;3.40;;;4.10;99.90;;;;;;5104723;28;20052;-69
2022/09/29 03:44:05;;;;;;;4.43;3.55;;;4.10;99.90;;;;;;5110280;28;20048;-69
2022/09/29 03:46:31;;;;;;;5.10;2.95;;;4.10;99.90;;;;;;5107322;28;20079;-69
2022/09/29 03:48:57;;;;;;;7.90;4.30;;;4.10;99.90;;;;;;5110340;28;20048;-69
2022/09/29 03:51:22;;;;;;;8.05;4.10;;;4.20;99.90;;;;;;5099185;28;20044;-69
2022/09/29 03:53:48;;;;;;;8.05;4.70;;;4.20;99.90;;;;;;5109466;28;20081;-69
2022/09/29 03:56:14;;;;;;;8.93;4.93;;;4.20;99.90;;;;;;5091086;28;20056;-69
2022/09/29 03:58:39;;;;;;;6.85;5.07;;;4.20;99.90;;;;;;5106827;28;20122;-69
2022/09/29 04:01:06;;;;;;;8.85;5.78;;;4.20;99.90;;;;;;5095901;28;20056;-69
2022/09/29 04:03:32;;;;;;;11.38;6.43;;;4.30;99.90;;;;;;5110169;28;20046;-69
2022/09/29 04:05:57;;;;;;;8.02;5.28;;;4.40;99.90;;;;;;5101106;28;20040;-69
2022/09/29 04:08:23;;;;;;;24.77;20.52;;;4.40;99.90;;;;;;5110093;28;20485;-69
2022/09/29 04:10:49;;;;;;;9.25;5.38;;;4.50;99.90;;;;;;5107881;28;20075;-69
2022/09/29 04:13:15;;;;;;;10.77;5.63;;;4.50;99.90;;;;;;5110158;28;20054;-69
2022/09/29 04:15:41;;;;;;;8.18;5.00;;;4.50;99.90;;;;;;5109597;28;20051;-69
2022/09/29 04:18:07;;;;;;;9.90;5.93;;;4.50;99.90;;;;;;5099125;28;20043;-69
2022/09/29 04:20:33;;;;;;;13.05;7.13;;;4.60;99.90;;;;;;5097014;28;20501;-69
2022/09/29 04:22:59;;;;;;;11.20;6.60;;;4.60;99.90;;;;;;5104062;28;20044;-69
2022/09/29 04:25:26;;;;;;;23.77;21.23;;;4.60;99.90;;;;;;5110061;28;20055;-68
2022/09/29 04:27:52;;;;;;;14.77;8.05;;;4.60;99.90;;;;;;5110021;28;20071;-69
2022/09/29 04:30:18;;;;;;;10.85;6.35;;;4.80;99.90;;;;;;5103564;28;20090;-69
2022/09/29 04:32:44;;;;;;;12.55;7.50;;;4.60;99.90;;;;;;5101000;28;20419;-69
2022/09/29 04:35:09;;;;;;;11.60;8.05;;;4.60;99.90;;;;;;5102731;28;20048;-69
2022/09/29 04:37:35;;;;;;;10.88;7.35;;;4.70;99.90;;;;;;5108035;28;20449;-69
2022/09/29 04:40:02;;;;;;;15.55;7.85;;;4.70;99.90;;;;;;5108224;28;20122;-69
2022/09/29 04:42:28;;;;;;;11.25;8.60;;;4.60;99.90;;;;;;5108753;28;20086;-69
2022/09/29 04:44:53;;;;;;;11.63;7.25;;;4.60;99.90;;;;;;5108370;28;20079;-69
2022/09/29 04:47:19;;;;;;;25.02;22.17;;;4.70;99.90;;;;;;5099331;28;20043;-69
2022/09/29 04:49:45;;;;;;;10.32;7.40;;;4.60;99.90;;;;;;5093714;28;20040;-69
2022/09/29 04:52:11;;;;;;;14.77;13.02;;;4.60;99.90;;;;;;5104240;28;20047;-69
2022/09/29 04:54:37;;;;;;;7.78;5.78;;;4.50;99.90;;;;;;5109973;28;20397;-69
2022/09/29 04:57:02;;;;;;;13.63;8.05;;;4.50;99.90;;;;;;5108326;28;20070;-69
2022/09/29 04:59:28;;;;;;;9.80;6.72;;;4.50;99.90;;;;;;5109193;28;20047;-69
2022/09/29 05:01:55;;;;;;;15.25;7.53;;;4.50;99.90;;;;;;5107798;28;20100;-69
2022/09/29 05:04:20;;;;;;;10.25;6.22;;;4.50;99.90;;;;;;5104429;28;20928;-69
2022/09/29 05:06:46;;;;;;;13.10;7.55;;;4.50;99.90;;;;;;5101576;28;20043;-69
2022/09/29 05:09:12;;;;;;;15.95;9.50;;;4.50;99.90;;;;;;5108931;28;20039;-69
2022/09/29 05:11:38;;;;;;;13.80;6.95;;;4.40;99.90;;;;;;5109313;28;20403;-69
2022/09/29 05:14:04;;;;;;;16.60;9.52;;;4.50;99.90;;;;;;5107743;28;20039;-69
2022/09/29 05:16:30;;;;;;;14.68;8.13;;;4.40;99.90;;;;;;5097628;28;20044;-69
2022/09/29 05:18:56;;;;;;;13.23;7.72;;;4.40;99.90;;;;;;5102303;28;20047;-69
2022/09/29 05:21:22;;;;;;;10.75;7.55;;;4.50;99.90;;;;;;5097501;28;20046;-69
2022/09/29 05:23:48;;;;;;;11.18;7.35;;;4.50;99.90;;;;;;5108007;28;20039;-69
2022/09/29 05:26:13;;;;;;;29.15;24.63;;;4.50;99.90;;;;;;5104144;28;20052;-69
2022/09/29 05:28:43;;;;;;;14.00;6.43;;;4.50;99.90;;;;;;5104998;28;20123;-69
2022/09/29 05:31:09;;;;;;;6.63;5.15;;;4.50;99.90;;;;;;5117809;27;20113;-69
2022/09/29 05:33:35;;;;;;;10.05;5.90;;;4.40;99.90;;;;;;5104133;28;20530;-69
2022/09/29 05:36:06;;;;;;;14.88;12.70;;;4.30;99.90;;;;;;5098966;28;20103;-69
2022/09/29 05:38:31;;;;;;;16.00;14.10;;;4.30;99.90;;;;;;5105850;28;20052;-69
2022/09/29 05:40:57;;;;;;;5.90;3.70;;;4.30;99.90;;;;;;5102993;28;20100;-69
2022/09/29 05:43:24;;;;;;;8.68;6.05;;;4.20;99.90;;;;;;5105105;28;20040;-69
2022/09/29 05:45:50;;;;;;;13.55;8.15;;;4.20;99.90;;;;;;5102932;28;20101;-69
2022/09/29 05:48:17;;;;;;;8.82;6.40;;;4.20;99.90;;;;;;5076574;28;20111;-69
2022/09/29 05:50:42;;;;;;;12.55;7.72;;;4.20;99.90;;;;;;5104620;28;20092;-70
2022/09/29 05:53:09;;;;;;;12.13;6.13;;;4.20;99.90;;;;;;5093186;28;20541;-69
2022/09/29 05:55:35;;;;;;;9.18;4.32;;;4.20;99.90;;;;;;5104077;28;20087;-69
2022/09/29 05:58:01;;;;;;;9.10;5.57;;;4.20;99.90;;;;;;5107130;28;20046;-69
2022/09/29 06:00:27;;;;;;;11.95;8.30;;;4.20;99.90;;;;;;5103960;28;20130;-69
2022/09/29 06:02:53;;;;;;;5.68;4.22;;;4.30;99.90;;;;;;5108199;27;20071;-69
2022/09/29 06:05:18;;;;;;;9.05;5.72;;;4.20;99.90;;;;;;5104616;28;20048;-69
2022/09/29 06:07:44;;;;;;;6.43;4.32;;;4.30;99.90;;;;;;5091381;28;20040;-70
2022/09/29 06:10:10;;;;;;;10.82;6.15;;;4.30;99.90;;;;;;5087033;28;20044;-70
2022/09/29 06:12:36;;;;;;;11.20;6.50;;;4.40;99.90;;;;;;5096137;28;20044;-69
2022/09/29 06:15:03;;;;;;;13.85;7.57;;;4.50;99.90;;;;;;5088914;28;20043;-70
2022/09/29 06:17:29;;;;;;;12.27;6.35;;;4.60;99.90;;;;;;5106304;28;20047;-69
2022/09/29 06:19:55;;;;;;;14.63;7.97;;;4.70;99.90;;;;;;5094700;28;20430;-70
2022/09/29 06:22:20;;;;;;;17.08;7.75;;;4.80;99.90;;;;;;5095880;28;20117;-70
2022/09/29 06:24:46;;;;;;;19.80;17.63;;;4.90;99.90;;;;;;5106609;28;20039;-70
2022/09/29 06:27:12;;;;;;;16.77;9.75;;;4.90;99.90;;;;;;5107043;28;20575;-70
2022/09/29 06:29:37;;;;;;;12.70;8.88;;;5.00;99.90;;;;;;5105111;28;20059;-69
2022/09/29 06:32:03;;;;;;;15.85;9.98;;;5.00;99.90;;;;;;5087371;28;20797;-70
2022/09/29 06:34:28;;;;;;;20.95;10.80;;;5.10;99.90;;;;;;5086621;28;20511;-69
2022/09/29 06:39:39;;;;;;;42.20;30.65;;;5.20;99.90;;;;;;5087313;28;20051;-68
2022/09/29 06:42:05;;;;;;;39.35;32.28;;;5.30;99.90;;;;;;5091371;28;20097;-69
2022/09/29 06:44:30;;;;;;;17.98;11.65;;;5.60;99.90;;;;;;5105334;28;20047;-69
2022/09/29 06:46:57;;;;;;;20.92;12.82;;;5.50;99.90;;;;;;5090048;28;20042;-69
2022/09/29 06:49:24;;;;;;;19.98;10.82;;;5.50;99.90;;;;;;5100804;28;20454;-69
2022/09/29 06:51:49;;;;;;;17.77;9.38;;;5.60;99.90;;;;;;5096606;28;20109;-69
2022/09/29 06:54:19;;;;;;;34.97;31.08;;;5.70;99.90;;;;;;5097336;28;20055;-69
2022/09/29 06:56:49;;;;;;;20.42;11.05;;;5.70;99.90;;;;;;5105265;28;20085;-69
2022/09/29 06:59:15;;;;;;;40.65;31.73;;;5.70;99.90;;;;;;5101803;28;20050;-68
2022/09/29 07:01:41;;;;;;;20.92;12.20;;;5.90;99.90;;;;;;5107724;28;20083;-69
2022/09/29 07:04:07;;;;;;;26.15;12.50;;;6.00;99.90;;;;;;5098549;28;20043;-69
2022/09/29 07:06:33;;;;;;;27.15;13.07;;;6.00;99.90;;;;;;5101889;28;20044;-69
2022/09/29 07:09:00;;;;;;;38.72;31.33;;;6.00;99.90;;;;;;5097194;28;20036;-69
2022/09/29 07:11:26;;;;;;;27.45;14.10;;;6.10;99.90;;;;;;5095421;28;20119;-69
2022/09/29 07:13:53;;;;;;;45.85;34.60;;;6.20;99.90;;;;;;5105347;28;20043;-69
2022/09/29 07:16:19;;;;;;;21.55;14.60;;;6.30;99.90;;;;;;5102944;28;20040;-70
2022/09/29 07:18:45;;;;;;;20.75;12.00;;;6.30;99.90;;;;;;5102778;28;20135;-69
2022/09/29 07:21:16;;;;;;;19.73;10.10;;;6.30;99.90;;;;;;5100355;28;20060;-69
2022/09/29 07:23:43;;;;;;;21.73;11.43;;;6.40;99.90;;;;;;5104160;28;20048;-69
2022/09/29 07:26:10;;;;;;;21.15;11.40;;;6.40;99.90;;;;;;5105305;28;20511;-69
2022/09/29 07:28:35;;;;;;;19.80;9.98;;;6.40;99.90;;;;;;5099265;28;20044;-67
2022/09/29 07:31:04;;;;;;;56.13;40.25;;;6.50;99.90;;;;;;5101375;28;20072;-67
2022/09/29 07:33:30;;;;;;;;;;;6.60;99.90;;;;;;5099438;28;20405;-67
2022/09/29 07:35:59;;;;;;;61.80;37.42;;;6.70;99.90;;;;;;5107009;28;19927;-67
2022/09/29 07:38:25;;;;;;;32.70;12.20;;;6.80;99.90;;;;;;5106039;28;20078;-68
2022/09/29 07:40:51;;;;;;;53.20;36.80;;;6.80;99.90;;;;;;5106370;28;20466;-67
2022/09/29 07:43:18;;;;;;;30.27;13.05;;;6.90;99.90;;;;;;5096090;28;20120;-67
2022/09/29 07:45:48;;;;;;;25.85;15.88;;;6.90;99.90;;;;;;5103040;28;20032;-67
2022/09/29 07:48:14;;;;;;;32.60;15.25;;;6.90;99.90;;;;;;5098445;28;20052;-67
2022/09/29 07:50:41;;;;;;;23.10;14.32;;;7.00;99.90;;;;;;5108826;28;20047;-67
2022/09/29 07:53:07;;;;;;;49.75;37.05;;;7.10;99.90;;;;;;5110499;28;20047;-67
2022/09/29 07:55:32;;;;;;;24.40;13.32;;;7.20;99.90;;;;;;5109482;28;20103;-67
2022/09/29 07:57:58;;;;;;;54.95;40.28;;;7.40;99.90;;;;;;5110099;28;20099;-67
2022/09/29 08:00:24;;;;;;;23.58;12.00;;;7.50;99.90;;;;;;5098157;28;20047;-67
2022/09/29 08:02:49;;;;;;;24.52;14.27;;;7.70;99.90;;;;;;5101345;28;20050;-68
2022/09/29 08:05:16;;;;;;;55.55;39.05;;;7.80;99.90;;;;;;5103468;28;20042;-67
2022/09/29 08:07:42;;;;;;;57.08;39.53;;;7.90;99.90;;;;;;5099708;28;20053;-68
2022/09/29 08:10:08;;;;;;;33.47;14.73;;;8.10;99.90;;;;;;5100368;28;20100;-67
2022/09/29 08:12:35;;;;;;;52.97;39.97;;;8.30;99.90;;;;;;5110174;28;20140;-68
2022/09/29 08:15:00;;;;;;;55.55;40.22;;;8.30;99.90;;;;;;5105719;28;20212;-68
2022/09/29 08:17:26;;;;;;;54.88;39.50;;;8.50;99.90;;;;;;5093701;28;20134;-68
2022/09/29 08:19:52;;;;;;;35.40;15.30;;;8.70;99.90;;;;;;5107803;28;20527;-68
2022/09/29 08:22:17;;;;;;;31.23;13.20;;;8.90;99.90;;;;;;5107341;28;20048;-68
2022/09/29 08:24:43;;;;;;;24.15;13.43;;;9.00;99.90;;;;;;5104205;28;20851;-67
2022/09/29 08:27:09;;;;;;;49.78;37.05;;;9.10;99.90;;;;;;5109150;28;20156;-67
2022/09/29 08:29:34;;;;;;;50.90;36.15;;;9.20;99.90;;;;;;5109824;28;20055;-67
2022/09/29 08:32:00;;;;;;;50.38;36.00;;;9.40;99.90;;;;;;5109088;28;20035;-68
2022/09/29 08:34:26;;;;;;;45.60;34.10;;;9.50;99.90;;;;;;5095020;28;20480;-67
2022/09/29 08:36:52;;;;;;;49.53;37.15;;;9.60;99.90;;;;;;5109841;28;20047;-68
2022/09/29 08:39:19;;;;;;;22.13;13.68;;;9.80;99.90;;;;;;5101526;28;20055;-68
2022/09/29 08:41:44;;;;;;;24.75;13.20;;;10.00;99.90;;;;;;5097939;28;20048;-68
2022/09/29 08:44:15;;;;;;;46.20;33.72;;;10.10;99.90;;;;;;5106457;28;20055;-68
2022/09/29 08:46:51;;;;;;;27.60;12.90;;;10.30;99.90;;;;;;5096860;27;20181;-68
2022/09/29 08:49:30;;;;;;;36.22;14.25;;;10.50;99.90;;;;;;5098486;28;20254;-68
2022/09/29 08:52:03;;;;;;;20.85;13.20;;;10.80;99.90;;;;;;5093692;28;20055;-68
2022/09/29 08:54:40;;;;;;;44.72;30.10;;;10.80;99.90;;;;;;5107974;28;20035;-68
2022/09/29 08:57:17;;;;;;;41.53;30.13;;;11.20;99.90;;;;;;5108804;28;20139;-68
2022/09/29 08:59:54;;;;;;;35.97;26.88;;;11.40;99.90;;;;;;5095367;28;20051;-68
2022/09/29 09:03:04;;;;;;;18.92;10.13;;;11.60;99.90;;;;;;5100104;28;20040;-68
2022/09/29 09:05:51;;;;;;;35.53;27.80;;;11.90;99.90;;;;;;5088420;28;20100;-69
2022/09/29 09:08:22;;;;;;;33.15;24.98;;;12.10;99.90;;;;;;5076790;28;20097;-68
2022/09/29 09:10:59;;;;;;;35.60;25.42;;;12.30;99.90;;;;;;5105306;28;20111;-68
2022/09/29 09:13:44;;;;;;;16.67;9.68;;;12.60;99.90;;;;;;5105955;28;20078;-69
2022/09/29 09:16:24;;;;;;;13.63;8.10;;;12.80;99.90;;;;;;5101887;28;20056;-68
2022/09/29 09:18:57;;;;;;;30.80;22.98;;;13.00;99.90;;;;;;5093883;28;20050;-68
2022/09/29 09:21:44;;;;;;;24.73;21.52;;;13.20;99.90;;;;;;5106073;28;20043;-68
2022/09/29 09:25:00;;;;;;;28.70;22.52;;;13.40;99.90;;;;;;5098391;28;20056;-69
2022/09/29 09:27:32;;;;;;;26.35;22.80;;;13.70;99.90;;;;;;5065744;28;20044;-68
2022/09/29 09:30:04;;;;;;;27.35;22.45;;;13.80;99.90;;;;;;5108777;28;20042;-68
2022/09/29 09:32:34;;;;;;;28.33;21.35;;;14.10;99.90;;;;;;5094485;28;20404;-69
2022/09/29 09:35:20;;;;;;;24.75;21.98;;;14.10;99.90;;;;;;5099382;28;20035;-69
2022/09/29 09:37:47;;;;;;;23.98;19.80;;;14.20;99.90;;;;;;5107016;28;20044;-68
2022/09/29 09:40:23;;;;;;;24.52;21.00;;;14.40;99.90;;;;;;5109211;28;20157;-69
2022/09/29 09:42:57;;;;;;;20.42;17.90;;;14.60;99.90;;;;;;5107292;28;20075;-68
2022/09/29 09:45:52;;;;;;;21.23;19.02;;;14.80;99.90;;;;;;5108502;28;20514;-69
2022/09/29 09:48:29;;;;;;;25.17;20.38;;;15.10;99.90;;;;;;5100559;28;20476;-69
2022/09/29 09:50:58;;;;;;;22.25;18.52;;;15.10;99.90;;;;;;5099268;28;20447;-68
2022/09/29 09:53:36;;;;;;;23.73;18.55;;;15.30;99.90;;;;;;5107290;28;20040;-69
2022/09/29 09:56:47;;;;;;;20.30;18.20;;;15.30;99.90;;;;;;5100635;28;20050;-68
2022/09/29 09:59:27;;;;;;;23.70;17.95;;;15.30;99.90;;;;;;5050796;28;20095;-68
2022/09/29 10:01:54;;;;;;;23.17;18.70;;;15.40;99.90;;;;;;5048748;28;20060;-69
2022/09/29 10:04:22;;;;;;;19.73;17.40;;;15.40;99.90;;;;;;5083734;28;20139;-68
2022/09/29 10:06:48;;;;;;;18.88;16.40;;;15.30;99.90;;;;;;5096133;28;20488;-68
2022/09/29 10:09:15;;;;;;;17.63;14.77;;;15.50;99.90;;;;;;5093986;28;20052;-68
2022/09/29 10:11:42;;;;;;;14.77;13.23;;;15.80;99.90;;;;;;5102634;28;20043;-68
2022/09/29 10:14:25;;;;;;;11.35;10.18;;;15.80;99.90;;;;;;5100510;28;20040;-68
2022/09/29 10:16:57;;;;;;;13.93;9.88;;;16.20;99.90;;;;;;5100836;28;20124;-68
2022/09/29 10:19:51;;;;;;;14.63;10.40;;;16.20;99.90;;;;;;5097699;28;20055;-68
2022/09/29 10:22:18;;;;;;;14.85;12.35;;;16.20;99.90;;;;;;5107582;28;20114;-68
2022/09/29 10:24:44;;;;;;;11.70;10.50;;;16.30;99.90;;;;;;5103083;28;20103;-68
2022/09/29 10:27:11;;;;;;;14.15;9.82;;;16.40;99.90;;;;;;5091960;28;20047;-68
2022/09/29 10:29:41;;;;;;;10.25;8.23;;;16.30;99.90;;;;;;5077762;28;20044;-68
2022/09/29 10:32:37;;;;;;;10.40;8.65;;;16.40;99.90;;;;;;5100368;28;20084;-68
2022/09/29 10:35:21;;;;;;;13.23;9.38;;;16.50;99.90;;;;;;5096914;28;20051;-69
2022/09/29 10:38:04;;;;;;;12.05;9.05;;;16.60;99.90;;;;;;5096259;28;20047;-69
2022/09/29 10:40:30;;;;;;;9.07;7.28;;;16.60;99.90;;;;;;5107124;28;20043;-69
2022/09/29 10:42:56;;;;;;;10.80;8.73;;;16.80;99.90;;;;;;5104472;28;20032;-69
2022/09/29 10:45:23;;;;;;;10.90;9.77;;;16.80;99.90;;;;;;5107172;28;20856;-68
2022/09/29 10:48:13;;;;;;;12.43;9.57;;;16.90;99.90;;;;;;5095592;28;20036;-68
2022/09/29 10:51:00;;;;;;;9.82;7.45;;;17.00;99.90;;;;;;5104010;28;20039;-69
2022/09/29 10:53:35;;;;;;;11.52;9.18;;;17.20;99.90;;;;;;5088230;28;20044;-68
2022/09/29 10:56:09;;;;;;;10.32;7.82;;;17.10;99.90;;;;;;5096812;28;20529;-68
2022/09/29 10:58:41;;;;;;;8.38;7.53;;;17.30;99.90;;;;;;5098632;28;20055;-69
2022/09/29 11:01:13;;;;;;;10.85;8.73;;;17.60;99.90;;;;;;5098935;28;20471;-68
2022/09/29 11:03:47;;;;;;;8.27;7.30;;;17.30;99.90;;;;;;5096344;28;20070;-68
2022/09/29 11:06:13;;;;;;;9.05;7.03;;;17.40;99.90;;;;;;5104522;28;20039;-68
2022/09/29 11:09:06;;;;;;;9.18;6.88;;;17.60;99.90;;;;;;5094945;28;20056;-68
2022/09/29 11:11:38;;;;;;;9.20;6.57;;;17.70;99.90;;;;;;5091780;28;20043;-68
2022/09/29 11:14:04;;;;;;;8.50;6.47;;;17.70;99.90;;;;;;5093768;28;20036;-68
2022/09/29 11:16:36;;;;;;;12.70;8.50;;;17.90;99.90;;;;;;5098961;28;20104;-69
2022/09/29 11:19:11;;;;;;;10.07;8.82;;;17.60;99.90;;;;;;5104799;28;20414;-68
2022/09/29 11:21:55;;;;;;;16.55;7.30;;;17.60;99.90;;;;;;5104182;28;20075;-69
2022/09/29 11:24:39;;;;;;;9.60;7.00;;;17.60;99.90;;;;;;5102652;28;20408;-69
2022/09/29 11:27:29;;;;;;;9.48;7.63;;;17.70;99.90;;;;;;5099313;28;20448;-69
2022/09/29 11:30:23;;;;;;;9.57;7.93;;;17.80;99.90;;;;;;5111635;28;20043;-69
2022/09/29 11:33:12;;;;;;;10.25;7.60;;;17.80;99.90;;;;;;5104862;28;20042;-69
2022/09/29 11:35:47;;;;;;;8.88;8.00;;;18.10;99.90;;;;;;5110774;28;20065;-70
2022/09/29 11:38:27;;;;;;;8.02;7.15;;;18.10;99.90;;;;;;5108636;28;20058;-70
2022/09/29 11:40:59;;;;;;;12.02;7.97;;;18.10;99.90;;;;;;5111545;28;20039;-70
2022/09/29 11:43:50;;;;;;;7.68;6.50;;;18.50;99.90;;;;;;5111269;28;20404;-71
2022/09/29 11:46:36;;;;;;;8.85;7.30;;;18.60;99.90;;;;;;5102823;28;20040;-70
2022/09/29 11:49:21;;;;;;;9.93;8.77;;;18.60;99.90;;;;;;5092197;28;20048;-70
2022/09/29 11:51:49;;;;;;;10.70;9.63;;;18.50;99.90;;;;;;5105185;28;20054;-71
2022/09/29 11:54:42;;;;;;;22.05;7.68;;;18.40;99.90;;;;;;5109311;28;20047;-71
2022/09/29 11:57:30;;;;;;;10.60;8.32;;;18.40;99.90;;;;;;5109708;28;20108;-71
2022/09/29 12:00:11;;;;;;;10.40;8.75;;;18.40;99.90;;;;;;5110844;28;20512;-72
2022/09/29 12:03:26;;;;;;;7.90;6.47;;;18.40;99.90;;;;;;5102953;28;20056;-71
2022/09/29 12:06:04;;;;;;;8.77;6.00;;;18.30;99.90;;;;;;5109323;28;20058;-71
2022/09/29 12:08:42;;;;;;;;;;;18.10;99.90;;;;;;5100616;28;20480;-71
2022/09/29 12:11:48;;;;;;;6.47;5.70;;;18.10;99.90;;;;;;5108389;28;19927;-72
2022/09/29 12:14:36;;;;;;;6.22;5.57;;;18.00;99.90;;;;;;5102092;28;20899;-72
2022/09/29 12:17:09;;;;;;;6.22;5.63;;;18.00;99.90;;;;;;5107221;28;20046;-72
2022/09/29 12:19:38;;;;;;;10.45;6.40;;;18.10;99.90;;;;;;5107896;28;20047;-72
2022/09/29 12:22:08;;;;;;;7.57;5.65;;;17.80;99.90;;;;;;5101689;28;20059;-72
2022/09/29 12:24:39;;;;;;;6.93;6.22;;;17.90;99.90;;;;;;5088651;28;20060;-71
2022/09/29 12:27:18;;;;;;;6.97;6.30;;;17.70;99.90;;;;;;5094558;28;20450;-72
2022/09/29 12:29:51;;;;;;;8.23;7.43;;;17.70;99.90;;;;;;5110442;28;20087;-72
2022/09/29 12:32:24;;;;;;;9.02;6.65;;;17.50;99.90;;;;;;5091694;28;20047;-72
2022/09/29 12:35:11;;;;;;;8.65;7.53;;;17.80;99.90;;;;;;5103519;28;20047;-72
2022/09/29 12:37:42;;;;;;;12.15;6.25;;;17.60;99.90;;;;;;5109266;28;20105;-72
2022/09/29 12:40:53;;;;;;;8.48;6.50;;;17.50;99.90;;;;;;5109333;28;20071;-72
2022/09/29 12:43:24;;;;;;;7.25;6.60;;;17.30;99.90;;;;;;5106573;28;20662;-72
2022/09/29 12:45:59;;;;;;;7.68;6.72;;;17.20;99.90;;;;;;5109014;28;20085;-72
2022/09/29 12:48:31;;;;;;;10.63;6.63;;;17.30;99.90;;;;;;5089516;28;20063;-72
2022/09/29 12:51:13;;;;;;;14.32;9.02;;;17.40;99.90;;;;;;5109747;28;20086;-72
2022/09/29 12:53:58;;;;;;;8.75;6.93;;;17.40;99.90;;;;;;5108312;28;20071;-72
2022/09/29 12:57:04;;;;;;;12.00;6.47;;;17.50;99.90;;;;;;5076864;28;20165;-72
2022/09/29 12:59:54;;;;;;;7.20;5.40;;;17.50;99.90;;;;;;5038015;28;20051;-72
2022/09/29 13:02:32;;;;;;;5.85;4.57;;;17.60;99.90;;;;;;5098562;28;20052;-72
2022/09/29 13:05:07;;;;;;;6.60;5.85;;;17.80;99.90;;;;;;5095896;28;20127;-71
2022/09/29 13:07:44;;;;;;;7.10;6.30;;;17.80;99.90;;;;;;5100518;28;20044;-71
2022/09/29 13:10:10;;;;;;;7.72;6.53;;;17.80;99.90;;;;;;5109041;28;20454;-72
2022/09/29 13:12:52;;;;;;;10.50;7.20;;;17.80;99.90;;;;;;5105581;28;20047;-71